Time;durP1;ratioP1;P1;durP2;ratioP2;P2;SDS_P1;SDS_P2;PMS_P1;PMS_P2;Temp;Humidity;BMP_temperature;BMP_pressure;BME280_temperature;BME280_humidity;BME280_pressure;Samples;Min_cycle;Max_cycle;Signal;HPM_P1;HPM_P2
2021/09/17 00:13:33;;;;;;;10.87;10.07;;;12.90;99.90;;;;;;4926109;29;20624;-96
2021/09/17 00:16:04;;;;;;;10.90;10.10;;;12.90;99.90;;;;;;4923432;29;20643;-96
2021/09/17 00:18:32;;;;;;;10.70;9.90;;;12.80;99.90;;;;;;4948435;28;20724;-96
2021/09/17 00:21:08;;;;;;;11.40;10.50;;;12.80;99.90;;;;;;5000842;28;20633;-96
2021/09/17 00:41:14;;;;;;;10.47;9.73;;;12.90;99.90;;;;;;4995041;28;20669;-94
2021/09/17 00:43:44;;;;;;;10.80;9.70;;;13.00;99.90;;;;;;5007119;28;21081;-96
2021/09/17 00:46:30;;;;;;;11.10;10.13;;;12.90;99.90;;;;;;4991898;28;20679;-96
2021/09/17 00:49:01;;;;;;;11.77;10.80;;;12.90;99.90;;;;;;4997087;28;20652;-96
2021/09/17 00:51:31;;;;;;;10.60;9.70;;;12.90;99.90;;;;;;5009506;28;21107;-95
2021/09/17 00:54:06;;;;;;;12.00;10.77;;;13.00;99.90;;;;;;5002180;28;20743;-95
2021/09/17 00:56:42;;;;;;;13.00;10.03;;;13.00;99.90;;;;;;5005509;28;20690;-95
2021/09/17 00:59:14;;;;;;;9.47;8.80;;;13.00;99.90;;;;;;4994176;28;20644;-96
2021/09/17 01:01:43;;;;;;;10.60;9.90;;;13.10;99.90;;;;;;5018126;28;20612;-96
2021/09/17 01:04:11;;;;;;;10.90;10.00;;;13.10;99.90;;;;;;5012307;28;20626;-96
2021/09/17 01:06:40;;;;;;;11.63;10.73;;;13.10;99.90;;;;;;5018656;28;20619;-94
2021/09/17 01:09:07;;;;;;;10.27;9.47;;;13.10;99.90;;;;;;5003363;28;20656;-95
2021/09/17 01:11:37;;;;;;;11.60;10.60;;;13.10;99.90;;;;;;5013044;28;20644;-95
2021/09/17 01:14:07;;;;;;;10.27;9.40;;;13.00;99.90;;;;;;5018821;28;20644;-95
2021/09/17 01:16:34;;;;;;;11.20;10.30;;;13.20;99.90;;;;;;5002073;28;20740;-95
2021/09/17 01:19:09;;;;;;;11.30;10.40;;;13.10;99.90;;;;;;5002015;28;20660;-95
2021/09/17 01:21:39;;;;;;;11.37;10.57;;;13.20;99.90;;;;;;5000392;28;20652;-96
2021/09/17 01:24:37;;;;;;;11.73;10.60;;;13.20;99.90;;;;;;5012322;28;20632;-96
2021/09/17 01:30:04;;;;;;;10.73;9.93;;;13.30;99.90;;;;;;5016323;28;20644;-96
2021/09/17 01:35:33;;;;;;;12.17;11.17;;;13.30;99.90;;;;;;5012723;28;20617;-96
2021/09/17 01:38:03;;;;;;;10.80;10.10;;;13.30;99.90;;;;;;5011246;28;20644;-96
2021/09/17 01:40:32;;;;;;;11.00;10.30;;;13.40;99.90;;;;;;5000072;28;20699;-94
2021/09/17 01:42:59;;;;;;;11.37;10.30;;;13.40;99.90;;;;;;4996768;28;20724;-95
2021/09/17 01:45:27;;;;;;;10.20;9.40;;;13.40;99.90;;;;;;5003205;28;20667;-95
2021/09/17 01:47:54;;;;;;;10.77;9.97;;;13.40;99.90;;;;;;4999408;28;20671;-96
2021/09/17 01:50:24;;;;;;;11.60;9.80;;;13.40;99.90;;;;;;5003289;28;20780;-96
2021/09/17 02:14:14;;;;;;;12.10;11.10;;;13.30;99.90;;;;;;5030536;28;20659;-95
2021/09/17 02:16:41;;;;;;;12.30;11.20;;;13.40;99.90;;;;;;5040413;28;20726;-94
2021/09/17 02:19:08;;;;;;;11.30;10.40;;;13.40;99.90;;;;;;5047353;28;21169;-96
2021/09/17 02:21:38;;;;;;;11.97;11.00;;;13.50;99.90;;;;;;5035486;28;20638;-95
2021/09/17 02:24:06;;;;;;;12.87;11.67;;;13.50;99.90;;;;;;5032642;28;20655;-95
2021/09/17 02:26:33;;;;;;;13.20;12.20;;;13.50;99.90;;;;;;5032349;28;20632;-96
2021/09/17 02:29:01;;;;;;;14.00;12.90;;;13.40;99.90;;;;;;5035499;28;20658;-96
2021/09/17 02:31:43;;;;;;;13.23;12.13;;;13.40;99.90;;;;;;5047271;28;20753;-96
2021/09/17 02:37:01;;;;;;;13.10;12.10;;;13.40;99.90;;;;;;5036724;28;20634;-96
2021/09/17 02:39:52;;;;;;;13.77;12.57;;;13.30;99.90;;;;;;5019927;28;20743;-96
2021/09/17 02:42:22;;;;;;;12.73;11.73;;;13.30;99.90;;;;;;5041947;28;20658;-96
2021/09/17 02:44:49;;;;;;;13.50;12.53;;;13.40;99.90;;;;;;5033552;28;20726;-95
2021/09/17 02:47:18;;;;;;;13.80;12.70;;;13.50;99.90;;;;;;5023001;28;20655;-94
2021/09/17 02:49:46;;;;;;;14.07;12.63;;;13.50;99.90;;;;;;5030736;28;20638;-94
2021/09/17 02:52:13;;;;;;;12.90;11.70;;;13.50;99.90;;;;;;5018206;28;21159;-94
2021/09/17 02:54:40;;;;;;;12.97;11.87;;;13.50;99.90;;;;;;5027191;28;20638;-94
2021/09/17 02:57:08;;;;;;;14.10;13.10;;;13.50;99.90;;;;;;5023946;28;21212;-94
2021/09/17 02:59:35;;;;;;;14.13;13.13;;;13.50;99.90;;;;;;5019272;28;20653;-94
2021/09/17 03:02:02;;;;;;;15.30;13.77;;;13.40;99.90;;;;;;5023250;28;20726;-96
2021/09/17 03:04:32;;;;;;;14.20;13.10;;;13.40;99.90;;;;;;5014732;28;21304;-96
2021/09/17 03:07:02;;;;;;;14.47;13.37;;;13.40;99.90;;;;;;5030102;28;20644;-96
2021/09/17 03:09:31;;;;;;;15.77;14.40;;;13.50;99.90;;;;;;5044604;28;20643;-96
2021/09/17 03:12:09;;;;;;;13.60;12.43;;;13.50;99.90;;;;;;5042414;28;20640;-96
2021/09/17 03:14:39;;;;;;;14.03;12.73;;;13.50;99.90;;;;;;5035803;28;20631;-96
2021/09/17 03:25:26;;;;;;;15.00;13.80;;;13.60;99.90;;;;;;5034588;28;20627;-96
2021/09/17 03:28:06;;;;;;;13.60;12.60;;;13.50;99.90;;;;;;5033412;28;20631;-96
2021/09/17 03:30:39;;;;;;;13.97;12.60;;;13.60;99.90;;;;;;5038504;28;20632;-96
2021/09/17 03:33:23;;;;;;;13.97;12.70;;;13.60;99.90;;;;;;5028470;28;20737;-96
2021/09/17 03:39:19;;;;;;;15.57;14.17;;;13.50;99.90;;;;;;5449417;22;20693;-96
2021/09/17 04:02:42;;;;;;;13.20;12.27;;;13.50;99.90;;;;;;5281268;22;20684;-96
2021/09/17 04:05:10;;;;;;;14.60;13.30;;;13.50;99.90;;;;;;5053458;28;20654;-96
2021/09/17 04:07:41;;;;;;;14.17;13.07;;;13.50;99.90;;;;;;5052834;28;20626;-96
2021/09/17 04:10:19;;;;;;;15.07;13.63;;;13.50;99.90;;;;;;5043824;28;20619;-96
2021/09/17 04:12:50;;;;;;;13.60;12.40;;;13.50;99.90;;;;;;5037663;28;20743;-96
2021/09/17 04:15:21;;;;;;;14.50;13.30;;;13.50;99.90;;;;;;5045520;28;20654;-96
2021/09/17 04:18:08;;;;;;;14.30;13.03;;;13.50;99.90;;;;;;5045565;28;20736;-96
2021/09/17 04:20:36;;;;;;;15.17;13.57;;;13.50;99.90;;;;;;5052667;28;20637;-96
2021/09/17 04:23:04;;;;;;;13.20;12.30;;;13.50;99.90;;;;;;5044078;28;20646;-96
2021/09/17 04:25:31;;;;;;;13.40;12.30;;;13.50;99.90;;;;;;5041141;28;20666;-95
2021/09/17 04:28:07;;;;;;;13.43;12.33;;;13.60;99.90;;;;;;5032866;28;20643;-95
2021/09/17 04:30:34;;;;;;;14.80;13.40;;;13.60;99.90;;;;;;5028381;28;20692;-93
2021/09/17 04:33:04;;;;;;;13.00;11.90;;;13.60;99.90;;;;;;5034709;28;20665;-93
2021/09/17 04:35:33;;;;;;;12.67;11.60;;;13.60;99.90;;;;;;5029942;28;20672;-96
2021/09/17 04:38:00;;;;;;;12.17;11.27;;;13.50;99.90;;;;;;5048378;28;20725;-95
2021/09/17 04:40:30;;;;;;;13.97;12.77;;;13.50;99.90;;;;;;5053556;28;20720;-94
2021/09/17 04:42:58;;;;;;;19.20;13.37;;;13.50;99.90;;;;;;5047032;28;20651;-93
2021/09/17 04:45:26;;;;;;;14.30;12.90;;;13.50;99.90;;;;;;5047947;28;20769;-94
2021/09/17 04:47:53;;;;;;;15.83;14.60;;;13.50;99.90;;;;;;5047932;28;20629;-95
2021/09/17 04:50:22;;;;;;;15.23;13.70;;;13.50;99.90;;;;;;5034974;28;20638;-95
2021/09/17 04:52:51;;;;;;;15.53;14.20;;;13.50;99.90;;;;;;5031061;28;21029;-94
2021/09/17 04:55:18;;;;;;;15.53;14.23;;;13.40;99.90;;;;;;5029767;28;21526;-95
2021/09/17 04:57:45;;;;;;;15.10;13.80;;;13.40;99.90;;;;;;5032272;28;20633;-95
2021/09/17 05:00:14;;;;;;;13.87;12.67;;;13.40;99.90;;;;;;5037606;28;20631;-96
2021/09/17 05:02:43;;;;;;;14.03;12.83;;;13.40;99.90;;;;;;5035253;28;20634;-96
2021/09/17 05:05:11;;;;;;;13.40;12.27;;;13.30;99.90;;;;;;5033926;28;20669;-95
2021/09/17 05:07:40;;;;;;;13.03;11.93;;;13.20;99.90;;;;;;5036337;28;20638;-95
2021/09/17 05:10:18;;;;;;;14.03;12.83;;;13.20;99.90;;;;;;5042935;28;21286;-96
2021/09/17 05:12:47;;;;;;;14.70;13.50;;;13.10;99.90;;;;;;5042438;28;21099;-96
2021/09/17 05:15:14;;;;;;;13.77;12.60;;;13.10;99.90;;;;;;5038006;28;21578;-96
2021/09/17 05:17:42;;;;;;;14.77;13.37;;;13.00;99.90;;;;;;5034578;28;20638;-94
2021/09/17 05:20:10;;;;;;;14.90;13.60;;;12.90;99.90;;;;;;5029097;28;20631;-95
2021/09/17 05:22:37;;;;;;;13.40;12.30;;;12.90;99.90;;;;;;5035660;28;20643;-94
2021/09/17 05:25:08;;;;;;;13.90;12.60;;;12.80;99.90;;;;;;5030132;28;20665;-95
2021/09/17 05:27:35;;;;;;;12.77;11.53;;;12.80;99.90;;;;;;5036153;28;21059;-95
2021/09/17 05:30:02;;;;;;;15.20;12.57;;;12.80;99.90;;;;;;5041300;28;21034;-94
2021/09/17 05:32:29;;;;;;;14.53;13.27;;;12.80;99.90;;;;;;5042880;28;20657;-94
2021/09/17 05:34:56;;;;;;;16.07;14.07;;;12.70;99.90;;;;;;5049248;28;20658;-94
2021/09/17 05:37:23;;;;;;;15.67;14.27;;;12.80;99.90;;;;;;5057235;28;20650;-94
2021/09/17 05:39:50;;;;;;;14.40;13.27;;;12.80;99.90;;;;;;5050194;28;20706;-95
2021/09/17 05:42:20;;;;;;;18.83;14.00;;;12.90;99.90;;;;;;5030917;28;20635;-94
2021/09/17 05:44:47;;;;;;;15.17;13.90;;;13.00;99.90;;;;;;5034825;28;20643;-94
2021/09/17 05:47:14;;;;;;;13.13;12.00;;;13.00;99.90;;;;;;5036422;28;20666;-94
2021/09/17 05:49:41;;;;;;;15.37;13.47;;;13.10;99.90;;;;;;5036712;28;21168;-95
2021/09/17 05:52:13;;;;;;;14.43;12.93;;;13.30;99.90;;;;;;5040445;28;20674;-95
2021/09/17 05:54:58;;;;;;;14.80;13.43;;;13.40;99.90;;;;;;5034679;28;20725;-95
2021/09/17 05:57:34;;;;;;;14.37;13.13;;;13.40;99.90;;;;;;5028722;28;20626;-96
2021/09/17 06:00:02;;;;;;;15.17;13.83;;;13.40;99.90;;;;;;5030298;28;20643;-95
2021/09/17 06:02:32;;;;;;;16.40;14.90;;;13.60;99.90;;;;;;5039502;28;20728;-95
2021/09/17 06:04:59;;;;;;;14.47;13.33;;;13.60;99.90;;;;;;5031188;28;21081;-95
2021/09/17 06:07:28;;;;;;;14.37;13.07;;;13.70;99.90;;;;;;5032263;28;20658;-96
2021/09/17 06:09:56;;;;;;;14.40;13.23;;;13.80;99.90;;;;;;5036917;28;20750;-96
2021/09/17 06:12:23;;;;;;;13.17;12.17;;;13.80;99.90;;;;;;5038216;28;21292;-96
2021/09/17 06:14:52;;;;;;;14.73;13.73;;;13.90;99.90;;;;;;5039497;28;21634;-95
2021/09/17 06:17:19;;;;;;;20.40;14.33;;;13.90;99.90;;;;;;5033616;28;20615;-95
2021/09/17 06:19:46;;;;;;;14.47;13.07;;;13.90;99.90;;;;;;5036065;28;21173;-95
2021/09/17 06:22:15;;;;;;;15.00;13.73;;;13.90;99.90;;;;;;5036363;28;20635;-96
2021/09/17 06:24:42;;;;;;;16.27;14.67;;;14.10;99.90;;;;;;5033647;28;20634;-95
2021/09/17 06:27:13;;;;;;;15.13;13.27;;;14.20;99.90;;;;;;5033443;28;20627;-96
2021/09/17 06:29:40;;;;;;;13.67;12.70;;;14.20;99.90;;;;;;5039422;28;20642;-95
2021/09/17 06:32:09;;;;;;;14.60;13.50;;;14.30;99.90;;;;;;5033329;28;20690;-95
2021/09/17 06:34:36;;;;;;;14.80;13.60;;;14.30;99.90;;;;;;5030393;28;20626;-95
2021/09/17 06:37:03;;;;;;;14.27;12.80;;;14.40;99.90;;;;;;5033300;28;20634;-95
2021/09/17 06:39:32;;;;;;;13.70;12.50;;;14.40;99.90;;;;;;5026875;28;20684;-95
2021/09/17 06:42:01;;;;;;;15.53;14.20;;;14.50;99.90;;;;;;5033718;28;20643;-95
2021/09/17 06:44:39;;;;;;;14.20;13.00;;;14.50;99.90;;;;;;5031393;28;20627;-95
2021/09/17 06:47:06;;;;;;;14.23;12.80;;;14.50;99.90;;;;;;5038749;28;20649;-95
2021/09/17 06:49:34;;;;;;;13.37;12.30;;;14.60;99.90;;;;;;5027848;28;21212;-96
2021/09/17 06:52:02;;;;;;;14.63;13.23;;;14.60;99.90;;;;;;5029775;28;20635;-94
2021/09/17 06:54:29;;;;;;;15.20;12.70;;;14.70;99.90;;;;;;5030089;28;20645;-95
2021/09/17 06:56:57;;;;;;;13.20;12.00;;;14.70;99.90;;;;;;5022905;28;20632;-95
2021/09/17 06:59:42;;;;;;;13.17;12.07;;;14.70;99.90;;;;;;5028577;28;20738;-95
2021/09/17 07:02:14;;;;;;;14.70;12.70;;;14.80;99.90;;;;;;5041425;28;20658;-95
2021/09/17 07:04:45;;;;;;;13.13;11.93;;;14.90;99.90;;;;;;5029270;28;20635;-96
2021/09/17 07:07:14;;;;;;;12.53;11.30;;;14.90;99.90;;;;;;5029316;28;20966;-95
2021/09/17 07:09:43;;;;;;;12.67;11.60;;;14.90;99.90;;;;;;5035056;28;21228;-95
2021/09/17 07:12:32;;;;;;;14.10;13.03;;;15.10;99.90;;;;;;5026915;28;21076;-96
2021/09/17 07:14:59;;;;;;;13.23;12.13;;;15.10;99.90;;;;;;5029294;28;20665;-95
2021/09/17 07:17:31;;;;;;;14.30;12.73;;;15.20;99.90;;;;;;5036853;28;20643;-95
2021/09/17 07:20:01;;;;;;;14.30;13.00;;;15.20;99.90;;;;;;5021675;28;21531;-96
2021/09/17 07:22:31;;;;;;;13.00;11.70;;;15.20;99.90;;;;;;5031671;28;20982;-95
2021/09/17 07:24:58;;;;;;;13.40;12.10;;;15.20;99.90;;;;;;5040519;28;20660;-96
2021/09/17 07:27:26;;;;;;;14.87;13.57;;;15.40;99.90;;;;;;5039844;28;20661;-96
2021/09/17 07:29:53;;;;;;;14.83;13.10;;;15.30;99.90;;;;;;5027615;28;20633;-96
2021/09/17 07:32:20;;;;;;;13.20;12.00;;;15.40;99.90;;;;;;5022874;28;20669;-95
2021/09/17 07:34:47;;;;;;;12.40;11.40;;;15.50;99.90;;;;;;5031886;28;21188;-96
2021/09/17 07:37:16;;;;;;;13.73;12.33;;;15.50;99.90;;;;;;5027794;28;21030;-96
2021/09/17 07:39:43;;;;;;;13.47;12.17;;;15.60;99.90;;;;;;5022199;28;20666;-95
2021/09/17 07:42:11;;;;;;;21.10;13.43;;;15.70;99.90;;;;;;5027078;28;21291;-96
2021/09/17 07:44:41;;;;;;;12.73;11.70;;;15.70;99.90;;;;;;5026822;28;20897;-96
2021/09/17 07:47:09;;;;;;;14.27;12.23;;;15.80;99.90;;;;;;5032184;28;20641;-96
2021/09/17 07:49:39;;;;;;;13.40;12.27;;;15.80;99.90;;;;;;5030217;28;20663;-96
2021/09/17 07:52:07;;;;;;;12.80;11.50;;;15.80;99.90;;;;;;5021815;28;20680;-96
2021/09/17 07:54:36;;;;;;;13.17;11.63;;;15.70;99.90;;;;;;5027769;28;20667;-96
2021/09/17 07:57:04;;;;;;;12.20;11.23;;;15.90;99.90;;;;;;5021857;28;21204;-95
2021/09/17 07:59:31;;;;;;;12.57;11.40;;;16.00;99.90;;;;;;5028437;28;21344;-94
2021/09/17 08:01:58;;;;;;;12.57;11.27;;;16.00;99.90;;;;;;5023110;28;20646;-94
2021/09/17 08:04:37;;;;;;;;;;;;;;;;;;;;;
2021/09/17 08:07:08;;;;;;;12.90;11.80;;;16.10;99.90;;;;;;5028608;28;20629;-95
2021/09/17 08:12:51;;;;;;;12.87;11.67;;;16.30;99.90;;;;;;4972810;28;20682;-95
2021/09/17 08:15:22;;;;;;;10.33;8.97;;;16.40;99.90;;;;;;5010785;28;20665;-95
2021/09/17 09:53:41;;;;;;;8.63;7.83;;;19.10;99.90;;;;;;5004169;28;20680;-96
2021/09/17 09:56:13;;;;;;;10.13;9.33;;;19.40;99.90;;;;;;5005321;28;20659;-96
2021/09/17 10:01:24;;;;;;;11.37;10.57;;;19.40;99.90;;;;;;5015554;28;20689;-95
2021/09/17 10:03:52;;;;;;;9.03;8.13;;;19.50;99.90;;;;;;4992520;28;20656;-95
2021/09/17 10:06:39;;;;;;;9.37;8.47;;;19.30;99.90;;;;;;5006062;28;20682;-96
2021/09/17 10:09:10;;;;;;;9.53;8.63;;;19.30;99.90;;;;;;4997788;28;21218;-96
2021/09/17 10:11:38;;;;;;;9.07;8.27;;;19.40;99.90;;;;;;4995555;28;20679;-94
2021/09/17 10:14:12;;;;;;;8.60;7.80;;;19.30;99.90;;;;;;4992432;28;21227;-96
2021/09/17 10:16:44;;;;;;;13.17;8.20;;;19.40;99.90;;;;;;4998214;28;20631;-96
2021/09/17 10:19:12;;;;;;;8.70;8.10;;;19.60;99.90;;;;;;4988774;28;20633;-95
2021/09/17 10:22:01;;;;;;;9.47;8.70;;;19.70;99.90;;;;;;4993004;28;20747;-94
2021/09/17 10:24:48;;;;;;;8.20;7.50;;;19.90;99.90;;;;;;4988870;28;20634;-95
2021/09/17 10:27:21;;;;;;;8.57;7.87;;;20.00;99.90;;;;;;4992251;28;20707;-94
2021/09/17 10:29:58;;;;;;;8.13;7.57;;;20.40;99.90;;;;;;4995145;28;21210;-96
2021/09/17 10:32:57;;;;;;;11.03;10.23;;;20.50;99.90;;;;;;4994595;28;20668;-96
2021/09/17 10:35:27;;;;;;;8.83;8.13;;;20.50;99.90;;;;;;4975477;28;20659;-95
2021/09/17 10:38:00;;;;;;;11.00;10.07;;;20.50;99.90;;;;;;4984851;28;20641;-96
2021/09/17 10:40:42;;;;;;;9.83;8.97;;;20.40;99.90;;;;;;4991517;28;20732;-95
2021/09/17 10:43:17;;;;;;;12.50;9.90;;;20.70;99.90;;;;;;4989884;28;20664;-95
2021/09/17 10:45:48;;;;;;;8.50;7.80;;;20.60;99.90;;;;;;4998878;28;21110;-95
2021/09/17 10:48:19;;;;;;;9.47;8.73;;;20.70;99.90;;;;;;4999756;28;20649;-96
2021/09/17 13:15:21;;;;;;;3.03;2.13;;;22.20;92.50;;;;;;5020040;28;20609;-96
2021/09/17 13:17:54;;;;;;;1.87;1.77;;;22.40;93.10;;;;;;5017878;28;20668;-96
2021/09/17 13:51:16;;;;;;;2.33;2.13;;;27.40;66.80;;;;;;4990255;28;20652;-96
2021/09/17 13:53:48;;;;;;;2.07;1.90;;;28.10;66.90;;;;;;4996817;28;20735;-95
2021/09/17 13:56:15;;;;;;;3.07;1.73;;;28.30;65.90;;;;;;5001730;28;21059;-94
2021/09/17 13:58:42;;;;;;;1.73;1.60;;;28.20;65.80;;;;;;4991861;28;20632;-95
2021/09/17 14:01:16;;;;;;;2.13;1.50;;;28.10;66.90;;;;;;5003207;28;20630;-96
2021/09/17 14:03:44;;;;;;;2.77;1.70;;;28.70;65.20;;;;;;4994012;28;20678;-96
2021/09/17 14:06:16;;;;;;;2.63;1.70;;;29.20;64.20;;;;;;4992303;28;20973;-96
2021/09/17 14:08:43;;;;;;;2.20;2.00;;;29.10;62.30;;;;;;4995550;28;20636;-96
2021/09/17 14:11:10;;;;;;;3.83;2.10;;;29.30;61.60;;;;;;5009928;28;20692;-95
2021/09/17 14:13:38;;;;;;;3.00;2.13;;;28.20;64.00;;;;;;5018067;28;20643;-95
2021/09/17 14:16:05;;;;;;;3.10;2.50;;;26.70;67.30;;;;;;5002783;28;20636;-95
2021/09/17 14:18:32;;;;;;;3.00;2.40;;;25.90;72.10;;;;;;5016050;28;20631;-95
2021/09/17 14:20:59;;;;;;;2.20;2.00;;;25.00;74.90;;;;;;5017354;28;20648;-94
2021/09/17 14:23:27;;;;;;;4.03;2.80;;;24.50;79.80;;;;;;5007121;28;20751;-96
2021/09/17 14:25:54;;;;;;;2.33;2.00;;;24.20;82.90;;;;;;4995729;28;20667;-95
2021/09/17 14:28:24;;;;;;;3.50;2.20;;;24.00;80.00;;;;;;4989405;28;20720;-95
2021/09/17 14:30:52;;;;;;;2.50;2.30;;;23.70;84.90;;;;;;4995090;28;20700;-95
2021/09/17 14:33:19;;;;;;;18.97;4.93;;;23.40;89.50;;;;;;4992341;28;21285;-96
2021/09/17 14:35:46;;;;;;;8.03;2.80;;;23.10;90.50;;;;;;4996395;28;20715;-96
2021/09/17 14:38:16;;;;;;;3.23;2.30;;;23.00;92.00;;;;;;4998194;28;21151;-95
2021/09/17 14:40:45;;;;;;;7.63;6.93;;;22.70;93.30;;;;;;4993348;28;20660;-96
2021/09/17 14:43:14;;;;;;;11.73;4.30;;;24.10;91.60;;;;;;4998330;28;20679;-96
2021/09/17 14:45:41;;;;;;;7.30;3.60;;;25.40;86.70;;;;;;4999370;28;20651;-96
2021/09/17 14:48:08;;;;;;;5.97;5.67;;;26.50;83.00;;;;;;4996286;28;20658;-96
2021/09/17 14:50:35;;;;;;;3.50;3.17;;;26.90;76.70;;;;;;4994759;28;21113;-96
2021/09/17 14:53:02;;;;;;;4.10;3.80;;;27.30;74.30;;;;;;4995203;28;20645;-95
2021/09/17 14:55:29;;;;;;;3.77;3.57;;;27.80;70.50;;;;;;4995004;28;20719;-96
2021/09/17 14:57:59;;;;;;;3.30;3.00;;;28.10;69.60;;;;;;4992194;28;20622;-95
2021/09/17 15:00:26;;;;;;;3.37;3.17;;;27.70;72.00;;;;;;4994146;28;20709;-95
2021/09/17 15:02:53;;;;;;;6.57;3.00;;;27.20;69.40;;;;;;4995710;28;20701;-96
2021/09/17 15:05:20;;;;;;;2.90;2.70;;;27.70;69.40;;;;;;4993707;28;21026;-96
2021/09/17 15:07:49;;;;;;;3.57;3.27;;;27.80;68.60;;;;;;4995333;28;20643;-95
2021/09/17 15:10:16;;;;;;;4.97;2.90;;;28.10;66.40;;;;;;4990770;28;21257;-96
2021/09/17 15:12:44;;;;;;;2.67;2.47;;;28.90;65.20;;;;;;4993132;28;20989;-96
2021/09/17 15:15:16;;;;;;;4.00;2.60;;;28.10;65.50;;;;;;5000575;28;20652;-96
2021/09/17 15:17:47;;;;;;;2.60;2.40;;;27.50;66.00;;;;;;5002504;28;20640;-96
2021/09/17 15:20:14;;;;;;;2.47;2.00;;;26.80;70.40;;;;;;5003214;28;20644;-96
2021/09/17 15:22:41;;;;;;;2.30;2.20;;;27.40;68.40;;;;;;5004388;28;21158;-96
2021/09/17 15:25:10;;;;;;;2.70;2.50;;;27.50;65.80;;;;;;4998538;28;20663;-95
2021/09/17 15:27:37;;;;;;;3.50;1.90;;;27.50;66.30;;;;;;4997704;28;20644;-95
2021/09/17 15:30:09;;;;;;;8.00;7.60;;;28.00;68.10;;;;;;5000748;28;20904;-96
2021/09/17 15:32:38;;;;;;;7.47;7.17;;;27.40;65.70;;;;;;5004455;28;20643;-94
2021/09/17 15:35:06;;;;;;;8.00;7.60;;;27.70;69.90;;;;;;4997339;28;20711;-94
2021/09/17 15:37:33;;;;;;;7.73;7.43;;;27.10;69.20;;;;;;5004569;28;20644;-93
2021/09/17 15:40:01;;;;;;;9.47;8.97;;;27.40;69.20;;;;;;5003343;28;20672;-94
2021/09/17 15:42:29;;;;;;;9.60;9.20;;;27.50;68.30;;;;;;4997153;28;20631;-95
2021/09/17 15:45:03;;;;;;;9.13;8.70;;;27.50;68.00;;;;;;4997709;28;21218;-96
2021/09/17 15:47:30;;;;;;;9.97;9.57;;;27.70;65.20;;;;;;4992064;28;20633;-96
2021/09/17 15:49:59;;;;;;;8.60;8.30;;;27.70;65.20;;;;;;4993395;28;20768;-95
2021/09/17 15:52:26;;;;;;;8.63;8.10;;;27.60;68.30;;;;;;4997693;28;20646;-94
2021/09/17 15:54:54;;;;;;;9.00;8.50;;;27.70;68.60;;;;;;4978101;28;20671;-96
2021/09/17 15:57:24;;;;;;;2.70;2.40;;;27.40;66.90;;;;;;4991961;28;20660;-95
2021/09/17 15:59:52;;;;;;;2.20;1.93;;;27.30;69.50;;;;;;4993189;28;20667;-95
2021/09/17 16:02:19;;;;;;;3.00;2.20;;;27.70;70.10;;;;;;4996053;28;20640;-95
2021/09/17 16:04:46;;;;;;;3.40;2.30;;;27.50;68.90;;;;;;4994506;28;20667;-95
2021/09/17 16:07:17;;;;;;;2.17;1.90;;;27.30;68.80;;;;;;4995495;28;20636;-96
2021/09/17 16:09:44;;;;;;;2.10;2.00;;;26.90;71.50;;;;;;4998521;28;20771;-96
2021/09/17 16:12:12;;;;;;;2.10;1.90;;;26.70;73.50;;;;;;4995300;28;20683;-94
2021/09/17 16:14:40;;;;;;;2.53;1.70;;;26.80;72.70;;;;;;4991665;28;20691;-95
2021/09/17 16:17:09;;;;;;;2.67;1.97;;;26.90;73.40;;;;;;4991053;28;20649;-94
2021/09/17 16:19:38;;;;;;;2.77;1.73;;;27.10;72.00;;;;;;4994440;28;20670;-94
2021/09/17 16:22:05;;;;;;;2.27;2.07;;;27.30;73.00;;;;;;4982913;28;21290;-96
2021/09/17 16:24:35;;;;;;;2.30;2.10;;;27.70;73.30;;;;;;4996308;28;20720;-94
2021/09/17 16:27:02;;;;;;;2.00;1.90;;;27.50;72.20;;;;;;4997367;28;20654;-96
2021/09/17 16:29:29;;;;;;;2.00;1.80;;;27.20;73.20;;;;;;4993283;28;20675;-95
2021/09/17 16:31:56;;;;;;;2.37;2.13;;;27.20;72.70;;;;;;4997761;28;20636;-95
2021/09/17 16:34:24;;;;;;;5.07;1.90;;;25.60;76.70;;;;;;4995292;28;20656;-95
2021/09/17 16:36:53;;;;;;;3.40;2.50;;;23.90;85.90;;;;;;4986823;28;20756;-95
2021/09/17 16:39:22;;;;;;;2.87;2.60;;;23.00;92.00;;;;;;4991276;28;20671;-94
2021/09/17 16:41:50;;;;;;;2.90;2.37;;;22.40;94.00;;;;;;4994580;28;20672;-94
2021/09/17 16:44:18;;;;;;;3.03;2.30;;;23.30;94.60;;;;;;4999449;28;20655;-94
2021/09/17 16:46:45;;;;;;;2.07;1.97;;;23.50;95.20;;;;;;4999624;28;20667;-95
2021/09/17 16:49:12;;;;;;;4.37;2.73;;;23.60;96.10;;;;;;4993776;28;20683;-93
2021/09/17 16:51:39;;;;;;;2.60;2.40;;;23.30;98.10;;;;;;4993523;28;20643;-94
2021/09/17 16:54:06;;;;;;;7.50;6.07;;;22.90;99.90;;;;;;4990933;28;20633;-93
2021/09/17 16:56:33;;;;;;;7.20;6.50;;;21.70;99.90;;;;;;4996273;28;21194;-93
2021/09/17 16:59:04;;;;;;;10.17;6.67;;;20.90;99.90;;;;;;5000032;28;20632;-94
2021/09/17 17:01:31;;;;;;;6.60;6.00;;;20.30;99.90;;;;;;5000089;28;20659;-94
2021/09/17 17:03:59;;;;;;;8.87;8.07;;;20.00;99.90;;;;;;4993708;28;21005;-93
2021/09/17 17:06:28;;;;;;;9.20;8.60;;;19.70;99.90;;;;;;4993962;28;21161;-94
2021/09/17 17:08:55;;;;;;;10.30;9.23;;;19.40;99.90;;;;;;4996206;28;20651;-94
2021/09/17 17:11:25;;;;;;;10.90;8.93;;;19.10;99.90;;;;;;4995656;28;20632;-95
2021/09/17 17:13:53;;;;;;;10.20;8.20;;;18.80;99.90;;;;;;4994908;28;20793;-95
2021/09/17 17:16:24;;;;;;;14.67;11.27;;;18.50;99.90;;;;;;4994011;28;20628;-94
2021/09/17 17:18:53;;;;;;;10.13;9.13;;;18.20;99.90;;;;;;4998528;28;20663;-93
2021/09/17 17:21:21;;;;;;;9.63;8.67;;;18.20;99.90;;;;;;4987174;28;20612;-94
2021/09/17 17:23:48;;;;;;;12.57;11.27;;;18.00;99.90;;;;;;5001770;28;20641;-93
2021/09/17 17:26:17;;;;;;;13.20;10.47;;;17.70;99.90;;;;;;5009702;28;20676;-93
2021/09/17 17:28:44;;;;;;;15.60;11.47;;;17.40;99.90;;;;;;4995069;28;20648;-93
2021/09/17 17:31:11;;;;;;;12.40;7.80;;;17.00;99.90;;;;;;4996223;28;20639;-93
2021/09/17 17:33:39;;;;;;;8.30;7.50;;;16.90;99.90;;;;;;4990360;28;20645;-93
2021/09/17 17:36:07;;;;;;;10.60;7.50;;;16.70;99.90;;;;;;4997436;28;20620;-93
2021/09/17 17:38:34;;;;;;;11.77;10.57;;;16.50;99.90;;;;;;5001184;28;21212;-94
2021/09/17 17:41:04;;;;;;;9.73;8.73;;;16.40;99.90;;;;;;5008382;28;20707;-93
2021/09/17 17:43:31;;;;;;;10.33;7.17;;;16.30;99.90;;;;;;5013993;28;20652;-94
2021/09/17 17:45:58;;;;;;;9.40;8.50;;;16.10;99.90;;;;;;5010361;28;20673;-94
2021/09/17 17:48:39;;;;;;;9.83;8.40;;;16.00;99.90;;;;;;4992759;28;20637;-92
2021/09/17 17:51:08;;;;;;;15.30;13.70;;;15.90;99.90;;;;;;4997671;28;20679;-93
2021/09/17 17:53:35;;;;;;;17.73;15.30;;;15.80;99.90;;;;;;4985513;28;20644;-93
2021/09/17 17:56:02;;;;;;;20.53;18.33;;;15.70;99.90;;;;;;4994465;28;20935;-93
2021/09/17 17:58:29;;;;;;;10.00;9.00;;;15.70;99.90;;;;;;4992778;28;20636;-95
2021/09/17 18:00:56;;;;;;;15.83;13.97;;;15.60;99.90;;;;;;4990896;28;20667;-93
2021/09/17 18:03:23;;;;;;;17.63;15.93;;;15.50;99.90;;;;;;4993834;28;20628;-92
2021/09/17 18:05:53;;;;;;;16.20;14.43;;;15.20;99.90;;;;;;4995965;28;20667;-92
2021/09/17 18:08:25;;;;;;;12.47;11.47;;;15.10;99.90;;;;;;4986882;28;20648;-92
2021/09/17 18:10:53;;;;;;;10.00;9.10;;;14.90;99.90;;;;;;4993162;28;20652;-92
2021/09/17 18:13:23;;;;;;;8.20;7.47;;;14.90;99.90;;;;;;4989920;28;20625;-93
2021/09/17 18:15:50;;;;;;;8.53;6.80;;;14.70;99.90;;;;;;4995522;28;20613;-96
2021/09/17 18:18:17;;;;;;;6.70;6.10;;;14.80;99.90;;;;;;4992392;28;20613;-93
2021/09/17 18:20:45;;;;;;;5.10;4.70;;;14.70;99.90;;;;;;4991499;28;20672;-94
2021/09/17 18:23:12;;;;;;;5.00;4.60;;;14.80;99.90;;;;;;4993771;28;20616;-93
2021/09/17 18:25:40;;;;;;;3.97;3.67;;;14.80;99.90;;;;;;4995143;28;20692;-95
2021/09/17 18:28:08;;;;;;;4.90;3.33;;;14.70;99.90;;;;;;4992889;28;20740;-94
2021/09/17 18:30:34;;;;;;;4.47;4.17;;;14.60;99.90;;;;;;4996319;28;20670;-95
2021/09/17 18:33:02;;;;;;;4.30;3.90;;;14.60;99.90;;;;;;4994696;28;20636;-96
2021/09/17 18:35:41;;;;;;;3.70;3.40;;;14.50;99.90;;;;;;4995448;28;20720;-92
2021/09/17 18:38:08;;;;;;;4.53;4.00;;;14.50;99.90;;;;;;5008208;28;20627;-95
2021/09/17 18:40:36;;;;;;;3.30;3.10;;;14.40;99.90;;;;;;4987314;28;20660;-96
2021/09/17 18:43:04;;;;;;;4.57;4.27;;;14.40;99.90;;;;;;5005785;28;21008;-95
2021/09/17 18:45:33;;;;;;;4.90;4.50;;;14.40;99.90;;;;;;5013675;28;20676;-95
2021/09/17 18:48:00;;;;;;;4.23;3.97;;;14.30;99.90;;;;;;5005453;28;20687;-95
2021/09/17 18:50:27;;;;;;;4.10;3.80;;;14.20;99.90;;;;;;4988916;28;20670;-95
2021/09/17 18:53:04;;;;;;;4.63;4.20;;;14.20;99.90;;;;;;4990518;28;20743;-95
2021/09/17 18:55:32;;;;;;;4.00;3.80;;;14.20;99.90;;;;;;4986127;28;20682;-95
2021/09/17 18:57:59;;;;;;;3.70;3.40;;;14.20;99.90;;;;;;4986938;28;20638;-95